createdAt,value
2023-02-09T00:03:41.423Z,9.93
2023-02-09T00:08:43.089Z,9.00
2023-02-09T00:13:44.519Z,9.32
2023-02-09T00:18:45.858Z,10.63
2023-02-09T00:23:47.182Z,8.48
2023-02-09T00:28:48.552Z,9.75
2023-02-09T00:33:49.906Z,10.25
2023-02-09T00:38:51.248Z,8.68
2023-02-09T00:43:52.572Z,9.32
2023-02-09T00:48:53.968Z,8.15
2023-02-09T00:53:55.507Z,10.48
2023-02-09T00:58:57.107Z,9.10
2023-02-09T01:03:58.549Z,10.40
2023-02-09T01:09:00.539Z,9.65
2023-02-09T01:14:04.229Z,9.20
2023-02-09T01:19:05.628Z,10.25
2023-02-09T01:24:07.814Z,10.05
2023-02-09T01:29:12.902Z,9.23
2023-02-09T01:34:17.451Z,9.23
2023-02-09T01:39:18.812Z,9.32
2023-02-09T01:44:20.080Z,8.63
2023-02-09T01:49:27.665Z,8.68
2023-02-09T01:54:34.514Z,8.85
2023-02-09T01:59:40.018Z,9.83
2023-02-09T02:04:44.333Z,9.30
2023-02-09T02:09:46.216Z,18.98
2023-02-09T02:14:47.644Z,10.40
2023-02-09T02:20:05.530Z,9.68
2023-02-09T02:25:32.896Z,9.60
2023-02-09T02:30:38.742Z,9.53
2023-02-09T02:35:58.623Z,8.65
2023-02-09T02:41:18.803Z,10.40
2023-02-09T02:46:30.711Z,9.30
2023-02-09T02:51:37.910Z,9.80
2023-02-09T02:56:43.059Z,6.93
2023-02-09T03:01:55.226Z,8.00
2023-02-09T03:06:56.586Z,8.27
2023-02-09T03:12:20.544Z,9.10
2023-02-09T03:17:43.391Z,8.82
2023-02-09T03:22:56.274Z,10.98
2023-02-09T03:28:12.181Z,9.75
2023-02-09T03:33:22.278Z,10.43
2023-02-09T03:38:24.842Z,8.75
2023-02-09T03:43:46.333Z,9.73
2023-02-09T03:48:47.876Z,8.57
2023-02-09T03:53:49.308Z,9.52
2023-02-09T03:58:51.191Z,8.50
2023-02-09T04:03:52.551Z,9.27
2023-02-09T04:08:53.937Z,9.07
2023-02-09T04:13:55.391Z,9.15
2023-02-09T04:18:57.141Z,9.43
2023-02-09T04:23:58.623Z,9.77
2023-02-09T04:29:00.048Z,8.85
2023-02-09T04:34:01.451Z,8.88
2023-02-09T04:39:03.300Z,10.40
2023-02-09T04:44:04.670Z,10.45
2023-02-09T04:49:06.005Z,9.52
2023-02-09T04:54:07.532Z,10.20
2023-02-09T04:59:28.320Z,10.48
2023-02-09T05:04:30.590Z,10.85
2023-02-09T05:09:32.051Z,9.25
2023-02-09T05:14:33.476Z,9.48
2023-02-09T05:19:34.818Z,8.65
2023-02-09T05:24:36.150Z,10.02
2023-02-09T05:29:37.485Z,9.10
2023-02-09T05:34:38.888Z,9.43
2023-02-09T05:39:40.333Z,8.93
2023-02-09T05:44:50.122Z,8.90
2023-02-09T05:49:52.478Z,9.25
2023-02-09T05:54:53.824Z,10.13
2023-02-09T05:59:55.258Z,10.70
2023-02-09T06:04:56.812Z,11.27
2023-02-09T06:09:58.438Z,10.57
2023-02-09T06:14:59.865Z,9.80
2023-02-09T06:20:01.375Z,11.40
2023-02-09T06:25:03.480Z,9.60
2023-02-09T06:30:05.613Z,11.02
2023-02-09T06:35:07.069Z,9.65
2023-02-09T06:40:08.659Z,9.90
2023-02-09T06:45:14.923Z,9.23
2023-02-09T06:50:17.854Z,10.10
2023-02-09T06:55:19.320Z,10.35
2023-02-09T07:00:21.791Z,9.00
2023-02-09T07:05:23.180Z,9.73
2023-02-09T07:10:24.631Z,11.00
2023-02-09T07:15:26.087Z,12.15
2023-02-09T07:20:27.567Z,10.73
2023-02-09T07:25:28.948Z,11.15
2023-02-09T07:30:30.379Z,11.65
2023-02-09T07:35:31.877Z,10.68
2023-02-09T07:40:33.218Z,12.20
2023-02-09T07:45:34.550Z,19.33
2023-02-09T07:50:35.922Z,19.55
2023-02-09T07:55:39.768Z,17.45
2023-02-09T08:00:41.081Z,16.05
2023-02-09T08:05:56.867Z,15.30
2023-02-09T08:11:00.923Z,15.88
2023-02-09T08:16:05.502Z,13.10
2023-02-09T08:21:09.693Z,13.05
2023-02-09T08:26:13.198Z,13.48
2023-02-09T08:31:17.409Z,12.50
2023-02-09T08:36:20.355Z,13.85
2023-02-09T08:41:21.959Z,12.15
2023-02-09T08:46:23.451Z,11.38
2023-02-09T08:51:24.959Z,12.90
2023-02-09T08:56:26.327Z,12.13
2023-02-09T09:01:27.718Z,11.48
2023-02-09T09:06:29.244Z,12.35
2023-02-09T09:11:30.754Z,11.77
2023-02-09T09:16:32.191Z,12.27
2023-02-09T09:21:33.926Z,12.07
2023-02-09T09:26:35.671Z,13.38
2023-02-09T09:31:37.974Z,12.07
2023-02-09T09:36:39.633Z,10.93
2023-02-09T09:41:41.095Z,12.73
2023-02-09T09:46:47.494Z,12.73
2023-02-09T09:51:55.680Z,12.85
2023-02-09T09:56:57.391Z,13.38
2023-02-09T10:02:03.497Z,11.50
2023-02-09T10:07:16.398Z,13.18
2023-02-09T10:12:30.033Z,13.88
2023-02-09T10:17:31.398Z,14.57
2023-02-09T10:22:32.753Z,12.55
2023-02-09T10:27:34.066Z,13.15
2023-02-09T10:32:43.295Z,13.90
2023-02-09T10:37:44.669Z,14.63
2023-02-09T10:43:00.799Z,13.70
2023-02-09T10:48:18.876Z,13.75
2023-02-09T10:58:33.468Z,14.15
2023-02-09T11:03:36.257Z,13.82
2023-02-09T11:08:43.323Z,14.40
2023-02-09T11:13:44.708Z,9.93
2023-02-09T11:18:57.060Z,13.23
2023-02-09T11:24:07.150Z,13.65
2023-02-09T11:29:35.025Z,14.90
2023-02-09T11:35:10.556Z,14.15
2023-02-09T11:40:33.236Z,14.02
2023-02-09T11:45:52.168Z,15.77
2023-02-09T11:51:07.939Z,14.13
2023-02-09T11:56:13.418Z,15.70
2023-02-09T12:01:39.774Z,13.95
2023-02-09T12:06:54.519Z,15.20
2023-02-09T12:12:10.288Z,15.50
2023-02-09T12:17:18.823Z,15.05
2023-02-09T12:22:35.479Z,15.02
2023-02-09T12:27:38.919Z,15.80
2023-02-09T12:32:43.892Z,16.33
2023-02-09T12:38:13.299Z,14.88
2023-02-09T12:43:27.004Z,15.55
2023-02-09T12:48:28.471Z,14.52
2023-02-09T12:53:40.675Z,16.55
2023-02-09T12:58:45.307Z,15.13
2023-02-09T13:04:05.669Z,14.57
2023-02-09T13:09:15.219Z,14.82
2023-02-09T13:14:18.626Z,15.23
2023-02-09T13:19:50.697Z,14.18
2023-02-09T13:25:00.394Z,16.40
2023-02-09T13:30:01.971Z,14.43
2023-02-09T13:35:24.283Z,14.85
2023-02-09T13:40:29.610Z,15.75
2023-02-09T13:45:31.822Z,14.50
2023-02-09T13:50:33.400Z,12.98
2023-02-09T13:55:37.740Z,15.63
2023-02-09T14:00:48.118Z,12.63
2023-02-09T14:05:59.634Z,13.70
2023-02-09T14:11:41.063Z,14.48
2023-02-09T14:16:53.160Z,12.98
2023-02-09T14:21:55.372Z,13.65
2023-02-09T14:27:04.889Z,14.20
2023-02-09T14:32:35.724Z,13.38
2023-02-09T14:37:37.156Z,14.63
2023-02-09T14:42:56.919Z,14.10
2023-02-09T14:47:58.448Z,14.05
2023-02-09T14:53:06.758Z,12.48
2023-02-09T14:58:23.269Z,13.15
2023-02-09T15:03:25.017Z,13.73
2023-02-09T15:08:30.270Z,12.65
2023-02-09T15:13:32.949Z,13.60
2023-02-09T15:18:36.081Z,14.15
2023-02-09T15:23:37.450Z,14.60
2023-02-09T15:28:39.355Z,13.70
2023-02-09T15:33:40.886Z,14.57
2023-02-09T15:38:42.336Z,15.27
2023-02-09T15:44:02.407Z,16.58
2023-02-09T15:49:05.402Z,14.32
2023-02-09T15:54:17.900Z,15.60
2023-02-09T15:59:22.028Z,16.30
2023-02-09T16:04:23.445Z,14.90
2023-02-09T16:09:27.680Z,16.02
2023-02-09T16:14:29.104Z,15.82
2023-02-09T16:19:30.719Z,16.40
2023-02-09T16:24:45.016Z,14.75
2023-02-09T16:29:46.360Z,15.98
2023-02-09T16:34:48.369Z,14.93
2023-02-09T16:39:49.796Z,15.68
2023-02-09T16:44:51.754Z,16.95
2023-02-09T16:50:02.785Z,15.10
2023-02-09T16:55:06.201Z,15.23
2023-02-09T17:00:08.271Z,15.70
2023-02-09T17:05:37.023Z,16.52
2023-02-09T17:10:38.377Z,15.57
2023-02-09T17:15:44.150Z,14.55
2023-02-09T17:20:50.644Z,15.45
2023-02-09T17:25:55.052Z,16.35
2023-02-09T17:31:00.145Z,13.88
2023-02-09T17:41:31.268Z,17.00
2023-02-09T17:46:32.633Z,16.27
2023-02-09T17:51:40.290Z,16.65
2023-02-09T17:56:42.453Z,19.00
2023-02-09T18:01:46.456Z,16.50
2023-02-09T18:06:47.828Z,16.48
2023-02-09T18:11:55.432Z,19.13
2023-02-09T18:16:56.998Z,17.85
2023-02-09T18:22:01.200Z,19.30
2023-02-09T18:27:02.791Z,18.77
2023-02-09T18:32:04.509Z,19.75
2023-02-09T18:37:06.752Z,19.73
2023-02-09T18:42:12.724Z,19.20
2023-02-09T18:47:14.214Z,23.83
2023-02-09T18:52:20.789Z,22.27
2023-02-09T18:57:22.138Z,24.45
2023-02-09T19:02:24.203Z,22.48
2023-02-09T19:07:25.847Z,20.48
2023-02-09T19:12:28.357Z,22.88
2023-02-09T19:17:29.909Z,21.15
2023-02-09T19:22:32.143Z,19.85
2023-02-09T19:27:33.615Z,20.80
2023-02-09T19:32:35.027Z,20.92
2023-02-09T19:37:37.340Z,21.75
2023-02-09T19:42:38.721Z,23.50
2023-02-09T19:47:40.131Z,24.67
2023-02-09T19:52:44.030Z,24.45
2023-02-09T19:57:45.444Z,21.70
2023-02-09T20:02:48.088Z,24.30
2023-02-09T20:07:49.775Z,22.50
2023-02-09T20:12:51.294Z,21.35
2023-02-09T20:17:52.616Z,20.67
2023-02-09T20:22:54.850Z,22.45
2023-02-09T20:27:56.229Z,20.92
2023-02-09T20:32:57.576Z,21.92
2023-02-09T20:37:58.912Z,22.10
2023-02-09T20:43:18.944Z,21.05
2023-02-09T20:48:20.288Z,20.48
2023-02-09T20:53:22.486Z,22.02
2023-02-09T20:58:24.856Z,22.40
2023-02-09T21:03:26.200Z,20.48
2023-02-09T21:08:27.570Z,20.13
2023-02-09T21:13:28.987Z,22.95
2023-02-09T21:18:30.328Z,25.95
2023-02-09T21:23:31.842Z,21.38
2023-02-09T21:28:33.266Z,18.90
2023-02-09T21:33:35.485Z,19.67
2023-02-09T21:38:41.401Z,22.40
2023-02-09T21:43:43.238Z,21.83
2023-02-09T21:48:44.804Z,22.83
2023-02-09T21:53:48.360Z,21.23
2023-02-09T21:58:49.723Z,22.98
2023-02-09T22:03:57.119Z,20.20
2023-02-09T22:09:02.397Z,23.52
2023-02-09T22:14:04.352Z,23.02
2023-02-09T22:19:05.751Z,22.08
2023-02-09T22:24:07.354Z,22.15
2023-02-09T22:29:10.188Z,22.73
2023-02-09T22:34:11.625Z,20.65
2023-02-09T22:39:13.054Z,21.88
2023-02-09T22:44:16.010Z,22.40
2023-02-09T22:49:19.682Z,24.08
2023-02-09T22:54:21.365Z,23.08
2023-02-09T22:59:22.737Z,21.55
2023-02-09T23:04:24.168Z,22.27
2023-02-09T23:09:25.628Z,20.77
2023-02-09T23:14:27.244Z,20.00
2023-02-09T23:19:28.636Z,22.13
2023-02-09T23:24:29.996Z,22.23
2023-02-09T23:29:31.386Z,21.25
2023-02-09T23:34:33.488Z,22.13
2023-02-09T23:39:35.961Z,20.75
2023-02-09T23:44:37.337Z,22.27
2023-02-09T23:49:38.719Z,22.17
2023-02-09T23:54:40.070Z,23.08
2023-02-09T23:59:42.532Z,18.83
